Time;durP1;ratioP1;P1;durP2;ratioP2;P2;SDS_P1;SDS_P2;PMS_P1;PMS_P2;Temp;Humidity;BMP_temperature;BMP_pressure;BME280_temperature;BME280_humidity;BME280_pressure;Samples;Min_cycle;Max_cycle;Signal;HPM_P1;HPM_P2
2021/03/28 00:01:05;;;;;;;2.40;1.88;;;7.30;58.90;;;;;;5128370;27;20196;-82
2021/03/28 00:03:37;;;;;;;4.18;2.03;;;7.10;58.90;;;;;;5132339;27;20231;-82
2021/03/28 00:06:20;;;;;;;4.43;2.40;;;7.00;59.30;;;;;;5133010;27;20250;-82
2021/03/28 00:09:05;;;;;;;3.17;2.08;;;7.00;58.70;;;;;;5132182;27;20194;-82
2021/03/28 00:11:35;;;;;;;3.17;1.83;;;7.00;58.80;;;;;;5120216;27;20201;-81
2021/03/28 00:14:02;;;;;;;5.80;2.20;;;7.00;58.70;;;;;;5132156;27;20193;-82
2021/03/28 00:16:32;;;;;;;3.80;2.00;;;7.20;58.40;;;;;;5132404;27;20189;-82
2021/03/28 00:19:04;;;;;;;2.90;1.88;;;7.20;58.40;;;;;;5132623;27;20189;-81
2021/03/28 00:21:34;;;;;;;4.53;2.20;;;7.20;58.20;;;;;;5132845;27;20535;-82
2021/03/28 00:24:16;;;;;;;4.47;2.38;;;7.20;58.40;;;;;;5118868;27;20217;-82
2021/03/28 00:26:46;;;;;;;3.47;2.13;;;7.20;58.10;;;;;;5132993;27;20201;-82
2021/03/28 00:29:22;;;;;;;5.43;2.47;;;7.20;58.20;;;;;;5132960;27;20197;-81
2021/03/28 00:31:57;;;;;;;5.50;2.58;;;7.10;58.00;;;;;;5131732;27;20197;-81
2021/03/28 00:34:27;;;;;;;5.82;2.40;;;7.20;58.60;;;;;;5131935;27;20201;-81
2021/03/28 00:36:58;;;;;;;6.03;3.17;;;7.20;58.40;;;;;;5132434;27;20201;-81
2021/03/28 00:39:40;;;;;;;8.07;3.08;;;7.10;58.50;;;;;;5131918;27;20193;-81
2021/03/28 00:42:11;;;;;;;6.10;2.28;;;7.00;58.50;;;;;;5132097;27;20185;-82
2021/03/28 00:44:48;;;;;;;2.65;2.40;;;7.10;58.70;;;;;;5131736;27;20217;-81
2021/03/28 00:47:21;;;;;;;5.30;2.10;;;7.00;58.70;;;;;;5132418;27;20193;-82
2021/03/28 00:49:58;;;;;;;3.25;2.95;;;7.10;58.60;;;;;;5132110;27;20634;-82
2021/03/28 00:52:29;;;;;;;4.97;2.15;;;7.00;58.60;;;;;;5132063;27;20196;-82
2021/03/28 00:55:02;;;;;;;2.83;2.47;;;7.10;59.00;;;;;;5132418;27;20208;-82
2021/03/28 00:57:35;;;;;;;7.10;2.80;;;7.20;58.70;;;;;;5130860;27;20525;-82
2021/03/28 01:00:35;;;;;;;10.57;2.35;;;7.10;58.90;;;;;;5132232;27;20242;-82
2021/03/28 01:03:09;;;;;;;4.00;2.50;;;7.10;58.80;;;;;;5130010;27;20228;-82
2021/03/28 01:05:44;;;;;;;3.55;2.63;;;7.10;58.80;;;;;;5131979;27;20200;-82
2021/03/28 01:08:20;;;;;;;3.65;2.60;;;6.90;59.10;;;;;;5131908;27;20197;-82
2021/03/28 01:11:12;;;;;;;6.07;2.38;;;6.80;59.20;;;;;;5131831;27;20193;-82
2021/03/28 01:14:19;;;;;;;2.95;2.65;;;6.90;59.90;;;;;;5131248;27;20288;-82
2021/03/28 01:17:26;;;;;;;5.45;2.60;;;6.80;59.30;;;;;;5125352;27;20197;-82
2021/03/28 01:20:31;;;;;;;3.53;2.38;;;6.90;59.40;;;;;;5125208;27;20209;-81
2021/03/28 01:23:11;;;;;;;6.35;2.50;;;6.80;59.30;;;;;;5114961;27;20221;-82
2021/03/28 01:26:19;;;;;;;2.92;2.10;;;6.80;59.40;;;;;;5131252;27;20189;-82
2021/03/28 01:28:55;;;;;;;5.72;2.08;;;6.50;59.90;;;;;;5131235;27;20254;-82
2021/03/28 01:31:47;;;;;;;3.53;2.15;;;6.50;60.80;;;;;;5131601;27;20814;-82
2021/03/28 01:34:21;;;;;;;4.18;2.40;;;6.40;60.60;;;;;;5130425;27;20253;-82
2021/03/28 01:37:04;;;;;;;5.18;2.35;;;6.40;60.90;;;;;;5127731;27;20583;-82
2021/03/28 01:39:41;;;;;;;3.30;2.40;;;6.40;60.30;;;;;;5130930;27;20185;-82
2021/03/28 01:42:18;;;;;;;8.00;2.55;;;6.40;61.10;;;;;;5131061;27;20204;-81
2021/03/28 01:44:53;;;;;;;5.03;2.60;;;6.30;60.70;;;;;;5130769;27;20335;-81
2021/03/28 01:47:31;;;;;;;4.03;2.53;;;6.10;61.40;;;;;;5131431;27;20279;-82
2021/03/28 01:50:35;;;;;;;3.58;2.45;;;6.10;61.70;;;;;;5131115;27;20665;-81
2021/03/28 01:53:16;;;;;;;9.20;2.58;;;6.00;62.00;;;;;;5111866;27;20288;-82
2021/03/28 01:55:52;;;;;;;4.15;2.58;;;5.90;61.90;;;;;;5131612;27;20209;-82
2021/03/28 01:58:30;;;;;;;5.85;2.38;;;5.90;62.30;;;;;;5131555;27;20215;-81
2021/03/28 02:01:20;;;;;;;5.93;2.20;;;5.80;63.10;;;;;;5130946;27;20189;-81
2021/03/28 02:04:04;;;;;;;2.40;2.20;;;5.80;63.00;;;;;;5130647;27;20321;-81
2021/03/28 02:06:55;;;;;;;7.18;3.10;;;5.90;62.40;;;;;;5131445;27;20201;-81
2021/03/28 02:09:34;;;;;;;3.20;2.80;;;5.90;62.20;;;;;;5105665;27;20326;-81
2021/03/28 02:12:10;;;;;;;2.42;2.08;;;6.10;62.20;;;;;;5130866;27;20197;-81
2021/03/28 02:15:19;;;;;;;3.17;2.00;;;6.00;62.20;;;;;;5130723;27;20203;-81
2021/03/28 02:17:57;;;;;;;4.55;2.35;;;6.00;62.20;;;;;;5080565;28;20562;-81
2021/03/28 02:20:47;;;;;;;6.28;2.78;;;6.10;61.80;;;;;;5130961;28;20658;-81
2021/03/28 02:23:27;;;;;;;5.68;2.70;;;6.10;61.60;;;;;;5129928;27;20224;-80
2021/03/28 02:25:59;;;;;;;4.95;1.98;;;6.10;61.60;;;;;;5131347;27;20189;-80
2021/03/28 02:28:40;;;;;;;2.28;2.08;;;6.10;61.90;;;;;;5129701;28;20258;-81
2021/03/28 02:31:19;;;;;;;7.47;2.03;;;6.00;62.30;;;;;;5114897;28;20552;-81
2021/03/28 02:33:51;;;;;;;2.25;1.98;;;5.80;62.60;;;;;;5129322;28;20193;-81
2021/03/28 02:36:27;;;;;;;2.88;2.15;;;5.90;63.40;;;;;;5130726;28;20542;-81
2021/03/28 02:39:21;;;;;;;4.57;2.60;;;5.80;63.40;;;;;;5129727;27;20220;-81
2021/03/28 02:42:07;;;;;;;2.53;2.33;;;5.60;64.00;;;;;;5130770;28;20197;-81
2021/03/28 02:44:46;;;;;;;4.80;2.05;;;5.50;64.10;;;;;;5130209;28;20224;-81
2021/03/28 02:47:22;;;;;;;4.78;2.67;;;5.70;64.20;;;;;;5129972;28;20245;-81
2021/03/28 02:50:34;;;;;;;4.05;2.28;;;5.70;63.40;;;;;;5130774;28;20253;-82
2021/03/28 02:53:18;;;;;;;5.43;2.90;;;5.80;63.30;;;;;;5130099;27;20577;-81
2021/03/28 02:56:28;;;;;;;4.80;2.22;;;5.90;63.30;;;;;;5130165;28;20193;-81
2021/03/28 02:59:12;;;;;;;6.03;2.85;;;5.90;62.90;;;;;;5130436;28;20185;-81
2021/03/28 03:02:06;;;;;;;4.95;2.58;;;5.80;63.50;;;;;;5130084;28;20218;-81
2021/03/28 03:04:58;;;;;;;4.30;2.17;;;5.70;64.30;;;;;;5129964;28;20318;-81
2021/03/28 03:08:09;;;;;;;4.43;2.33;;;5.70;64.60;;;;;;5131112;28;20198;-80
2021/03/28 03:11:14;;;;;;;6.03;2.60;;;5.80;64.90;;;;;;5107799;28;20201;-80
2021/03/28 03:14:12;;;;;;;3.40;2.55;;;5.70;65.10;;;;;;5092844;27;20209;-80
2021/03/28 03:17:14;;;;;;;4.20;2.60;;;5.80;64.10;;;;;;5110279;28;20292;-81
2021/03/28 03:20:10;;;;;;;13.35;2.70;;;5.90;64.20;;;;;;5125444;28;20200;-81
2021/03/28 03:23:09;;;;;;;4.22;2.83;;;6.00;65.00;;;;;;5129893;28;20279;-81
2021/03/28 03:26:25;;;;;;;4.00;3.38;;;5.90;63.20;;;;;;5125385;28;20711;-81
2021/03/28 03:29:17;;;;;;;3.72;2.20;;;5.90;63.60;;;;;;5129286;28;20206;-81
2021/03/28 03:32:15;;;;;;;3.78;2.70;;;5.90;63.70;;;;;;5130502;28;20193;-81
2021/03/28 03:34:58;;;;;;;3.85;2.90;;;5.90;63.90;;;;;;5129954;27;20192;-80
2021/03/28 03:38:01;;;;;;;4.03;2.92;;;5.80;63.80;;;;;;5113574;28;20541;-80
2021/03/28 03:40:36;;;;;;;3.78;2.38;;;5.90;63.80;;;;;;5132927;27;20189;-81
2021/03/28 03:43:35;;;;;;;5.43;2.45;;;5.90;63.90;;;;;;5133235;27;20669;-81
2021/03/28 03:46:08;;;;;;;6.47;2.95;;;5.80;63.80;;;;;;5133652;27;20234;-81
2021/03/28 03:49:06;;;;;;;5.25;2.90;;;5.90;64.00;;;;;;5134104;27;20185;-81
2021/03/28 03:52:05;;;;;;;6.35;2.78;;;6.00;64.30;;;;;;5113011;28;20246;-81
2021/03/28 03:54:53;;;;;;;3.50;2.97;;;5.90;63.80;;;;;;5118616;27;20200;-82
2021/03/28 03:57:35;;;;;;;5.38;2.90;;;5.70;63.80;;;;;;5146409;27;20212;-81
2021/03/28 04:00:15;;;;;;;3.70;2.22;;;5.50;64.10;;;;;;5134963;27;20200;-80
2021/03/28 04:02:52;;;;;;;4.15;2.42;;;5.40;64.70;;;;;;5112914;28;20193;-80
2021/03/28 04:05:39;;;;;;;5.68;3.10;;;5.40;64.70;;;;;;5128766;27;20196;-81
2021/03/28 04:08:24;;;;;;;4.15;2.53;;;5.50;65.10;;;;;;5133583;27;20193;-80
2021/03/28 04:11:04;;;;;;;5.50;2.05;;;5.40;65.50;;;;;;5132210;27;20657;-81
2021/03/28 04:14:08;;;;;;;5.25;2.47;;;5.60;65.50;;;;;;5132276;27;20752;-81
2021/03/28 04:16:53;;;;;;;14.40;2.97;;;5.60;65.50;;;;;;5132758;27;20199;-81
2021/03/28 04:19:32;;;;;;;6.45;2.28;;;5.60;65.10;;;;;;5131882;27;20199;-82
2021/03/28 04:22:14;;;;;;;4.93;2.60;;;5.50;64.60;;;;;;5133503;27;20658;-81
2021/03/28 04:24:52;;;;;;;4.65;2.50;;;5.50;64.40;;;;;;5132004;27;20263;-80
2021/03/28 04:27:41;;;;;;;3.83;2.47;;;5.50;64.50;;;;;;5132658;27;20273;-82
2021/03/28 04:30:32;;;;;;;4.97;2.95;;;5.40;65.40;;;;;;5132431;27;20189;-81
2021/03/28 04:33:14;;;;;;;8.68;2.85;;;5.40;65.00;;;;;;5132421;27;20301;-81
2021/03/28 04:36:02;;;;;;;2.45;2.25;;;5.50;65.00;;;;;;5130452;27;20216;-81
2021/03/28 04:38:42;;;;;;;2.78;2.08;;;5.40;64.80;;;;;;5132435;27;20197;-81
2021/03/28 04:41:52;;;;;;;3.08;2.70;;;5.50;64.80;;;;;;5132171;27;20193;-82
2021/03/28 04:44:58;;;;;;;2.97;2.05;;;5.40;65.00;;;;;;5131604;27;20231;-80
2021/03/28 04:48:01;;;;;;;5.80;2.58;;;5.30;65.20;;;;;;5132634;27;20212;-82
2021/03/28 04:50:55;;;;;;;5.63;3.25;;;5.40;65.40;;;;;;5127707;27;20253;-82
2021/03/28 04:54:15;;;;;;;4.60;2.30;;;5.50;65.40;;;;;;5132242;27;20197;-81
2021/03/28 04:57:16;;;;;;;5.78;2.35;;;5.10;65.20;;;;;;5050125;27;20262;-82
2021/03/28 05:00:17;;;;;;;3.90;2.40;;;5.10;66.50;;;;;;5126833;27;20214;-81
2021/03/28 05:03:09;;;;;;;3.88;2.85;;;5.20;66.20;;;;;;5122742;27;20288;-82
2021/03/28 05:06:00;;;;;;;3.17;2.50;;;5.10;66.40;;;;;;5132173;27;20224;-83
2021/03/28 05:08:53;;;;;;;4.93;2.53;;;5.10;66.30;;;;;;5132220;27;20298;-81
2021/03/28 05:12:06;;;;;;;2.75;2.33;;;5.10;66.00;;;;;;5130924;27;20285;-82
2021/03/28 05:15:14;;;;;;;4.00;2.83;;;5.20;65.90;;;;;;5060904;27;20563;-82
2021/03/28 05:18:13;;;;;;;6.15;2.28;;;5.10;66.00;;;;;;5132152;27;20189;-82
2021/03/28 05:21:02;;;;;;;5.05;2.35;;;5.10;66.70;;;;;;5131778;27;20284;-83
2021/03/28 05:24:15;;;;;;;5.03;2.55;;;5.20;67.10;;;;;;5131186;27;20232;-83
2021/03/28 05:27:10;;;;;;;5.78;2.30;;;5.20;66.60;;;;;;5068267;28;20265;-81
2021/03/28 05:30:06;;;;;;;2.97;2.50;;;5.20;66.70;;;;;;5103014;27;20208;-82
2021/03/28 05:33:03;;;;;;;3.15;2.10;;;5.20;66.60;;;;;;5111331;27;20601;-81
2021/03/28 05:36:03;;;;;;;2.70;2.17;;;5.30;66.40;;;;;;5127567;27;20654;-84
2021/03/28 05:38:54;;;;;;;2.60;2.10;;;5.30;65.80;;;;;;5126421;27;20200;-82
2021/03/28 05:41:42;;;;;;;5.10;2.47;;;5.30;65.90;;;;;;5130983;27;20197;-81
2021/03/28 05:44:37;;;;;;;4.30;2.25;;;5.10;67.40;;;;;;5117472;27;20296;-81
2021/03/28 05:47:32;;;;;;;4.60;2.50;;;5.10;66.80;;;;;;5115636;27;20185;-82
2021/03/28 05:50:14;;;;;;;4.35;3.08;;;5.20;66.50;;;;;;5131000;27;20674;-82
2021/03/28 05:53:24;;;;;;;6.93;2.28;;;5.30;66.60;;;;;;5130836;27;20232;-81
2021/03/28 05:56:33;;;;;;;5.03;2.20;;;5.30;66.70;;;;;;5127314;27;20205;-82
2021/03/28 05:59:19;;;;;;;10.82;3.17;;;5.40;66.40;;;;;;5130600;27;20698;-82
2021/03/28 06:02:24;;;;;;;2.90;2.25;;;5.40;66.00;;;;;;5130060;27;20205;-80
2021/03/28 06:05:48;;;;;;;3.38;2.35;;;5.40;65.70;;;;;;5095391;27;20236;-80
2021/03/28 06:09:18;;;;;;;2.90;2.65;;;5.40;66.10;;;;;;5110123;27;20216;-81
2021/03/28 06:12:17;;;;;;;3.50;2.08;;;5.30;66.40;;;;;;5036982;28;20893;-80
2021/03/28 06:15:02;;;;;;;2.88;2.28;;;5.50;66.20;;;;;;5027412;28;20223;-80
2021/03/28 06:17:49;;;;;;;3.58;2.28;;;5.50;66.10;;;;;;5130396;27;20197;-81
2021/03/28 06:20:47;;;;;;;3.88;2.40;;;5.50;66.00;;;;;;5131058;27;20189;-80
2021/03/28 06:23:57;;;;;;;2.70;2.50;;;5.50;66.50;;;;;;5131041;28;20690;-81
2021/03/28 06:26:59;;;;;;;3.15;2.47;;;5.70;66.50;;;;;;5127978;28;20596;-80
2021/03/28 06:29:50;;;;;;;4.90;3.10;;;5.80;66.20;;;;;;5122339;28;20253;-80
2021/03/28 06:32:45;;;;;;;6.80;3.70;;;5.90;66.10;;;;;;5128335;28;20662;-81
2021/03/28 06:35:52;;;;;;;3.50;3.20;;;5.80;66.10;;;;;;5129815;28;20205;-82
2021/03/28 06:38:48;;;;;;;4.00;3.05;;;5.70;65.50;;;;;;5065039;28;20208;-83
2021/03/28 06:41:46;;;;;;;4.90;2.58;;;5.90;66.20;;;;;;5132414;28;20198;-82
2021/03/28 06:45:02;;;;;;;7.80;2.90;;;6.10;65.40;;;;;;5119704;27;20252;-83
2021/03/28 06:48:19;;;;;;;10.85;3.22;;;6.20;64.70;;;;;;5126727;27;20190;-82
2021/03/28 06:51:21;;;;;;;4.30;2.35;;;6.40;64.40;;;;;;5080925;28;20197;-83
2021/03/28 06:54:26;;;;;;;3.55;2.40;;;6.50;64.90;;;;;;5133460;27;20530;-83
2021/03/28 06:57:41;;;;;;;2.50;2.30;;;6.60;64.80;;;;;;5129907;28;20257;-83
2021/03/28 07:00:49;;;;;;;6.03;2.60;;;6.80;63.90;;;;;;5130647;27;20238;-83
2021/03/28 07:03:26;;;;;;;3.80;2.60;;;6.90;63.70;;;;;;5112145;27;20653;-83
2021/03/28 07:06:05;;;;;;;3.72;2.65;;;7.10;63.70;;;;;;5151158;27;20270;-83
2021/03/28 07:08:55;;;;;;;12.90;2.40;;;7.30;63.70;;;;;;5145130;27;20186;-83
2021/03/28 07:11:39;;;;;;;3.75;1.95;;;7.70;63.40;;;;;;5125536;27;20541;-84
2021/03/28 07:14:55;;;;;;;3.45;2.33;;;7.80;63.00;;;;;;5134066;27;20271;-83
2021/03/28 07:18:03;;;;;;;5.28;2.28;;;8.00;62.30;;;;;;5134253;27;20610;-83
2021/03/28 07:20:48;;;;;;;3.50;2.33;;;8.10;61.20;;;;;;5134404;27;20302;-83
2021/03/28 07:23:50;;;;;;;3.65;2.28;;;8.10;60.40;;;;;;5133532;27;20197;-84
2021/03/28 07:26:34;;;;;;;3.95;2.88;;;8.30;60.20;;;;;;5128032;27;20200;-83
2021/03/28 07:29:44;;;;;;;3.60;2.90;;;8.40;59.90;;;;;;5130913;27;20193;-83
2021/03/28 07:32:34;;;;;;;3.55;2.40;;;8.50;59.70;;;;;;5133980;27;20253;-83
2021/03/28 07:35:24;;;;;;;2.45;2.25;;;8.50;59.90;;;;;;5134212;27;20201;-84
2021/03/28 07:38:28;;;;;;;4.97;3.10;;;8.70;60.00;;;;;;5130425;27;20206;-84
2021/03/28 07:41:28;;;;;;;3.75;2.50;;;8.80;59.40;;;;;;5130507;27;20647;-85
2021/03/28 07:44:21;;;;;;;3.42;2.33;;;8.80;58.90;;;;;;5131104;27;20258;-86
2021/03/28 07:47:33;;;;;;;2.70;2.45;;;8.80;58.50;;;;;;5131100;27;20235;-85
2021/03/28 07:50:36;;;;;;;3.30;2.30;;;9.00;59.00;;;;;;5128759;27;20660;-85
2021/03/28 07:53:27;;;;;;;5.40;2.38;;;9.30;58.90;;;;;;5131849;27;20204;-85
2021/03/28 07:56:08;;;;;;;8.05;2.45;;;9.40;58.00;;;;;;5131407;27;20194;-85
2021/03/28 07:58:50;;;;;;;3.28;2.22;;;9.10;58.50;;;;;;5130278;27;20185;-85
2021/03/28 08:01:52;;;;;;;3.28;2.42;;;9.60;58.60;;;;;;5128625;27;20201;-85
2021/03/28 08:05:06;;;;;;;4.20;2.80;;;9.80;57.90;;;;;;5131245;27;20217;-84
2021/03/28 08:07:42;;;;;;;5.25;2.33;;;10.00;56.10;;;;;;5133241;27;20839;-85
2021/03/28 08:10:32;;;;;;;7.20;2.00;;;10.00;55.30;;;;;;5132522;27;20216;-86
2021/03/28 08:13:49;;;;;;;5.68;2.65;;;9.80;56.50;;;;;;5131132;27;20212;-85
2021/03/28 08:17:00;;;;;;;4.60;2.35;;;9.70;56.90;;;;;;5051965;28;20204;-85
2021/03/28 08:20:18;;;;;;;4.47;2.17;;;9.90;57.20;;;;;;5066586;27;20262;-85
2021/03/28 08:23:13;;;;;;;2.80;1.70;;;10.10;56.40;;;;;;5109774;27;20280;-85
2021/03/28 08:26:22;;;;;;;2.88;2.10;;;10.20;56.70;;;;;;5132496;27;20197;-85
2021/03/28 08:29:34;;;;;;;3.47;1.83;;;10.40;55.90;;;;;;5122527;27;20250;-82
2021/03/28 08:32:21;;;;;;;4.72;2.22;;;10.60;55.90;;;;;;5101258;27;20665;-86
2021/03/28 08:35:21;;;;;;;4.32;1.85;;;10.60;56.70;;;;;;5130150;27;20194;-85
2021/03/28 08:38:19;;;;;;;2.63;2.00;;;10.70;56.20;;;;;;5128089;27;20213;-83
2021/03/28 08:41:26;;;;;;;5.43;2.38;;;10.50;55.90;;;;;;5130578;27;20208;-84
2021/03/28 08:44:28;;;;;;;3.75;2.63;;;10.20;55.90;;;;;;5082990;27;20232;-83
2021/03/28 08:47:42;;;;;;;2.70;1.45;;;10.60;56.50;;;;;;5099082;27;20201;-83
2021/03/28 08:50:20;;;;;;;3.10;1.60;;;10.80;56.40;;;;;;5129385;27;20207;-83
2021/03/28 08:53:23;;;;;;;4.72;1.70;;;10.40;54.80;;;;;;5132171;27;20666;-82
2021/03/28 08:56:28;;;;;;;7.18;1.90;;;10.30;55.40;;;;;;5128732;27;20205;-81
2021/03/28 08:58:59;;;;;;;5.43;1.73;;;10.20;53.90;;;;;;5130200;27;20658;-82
2021/03/28 09:01:49;;;;;;;3.27;1.83;;;10.40;55.10;;;;;;5128536;27;20190;-82
2021/03/28 09:04:32;;;;;;;5.37;2.53;;;10.70;54.80;;;;;;5127893;27;20670;-82
2021/03/28 09:07:07;;;;;;;2.23;1.30;;;11.00;54.30;;;;;;5130995;27;21224;-81
2021/03/28 09:10:03;;;;;;;7.63;1.63;;;11.40;54.30;;;;;;5130648;27;20611;-82
2021/03/28 09:12:43;;;;;;;4.83;1.60;;;11.30;53.40;;;;;;5124163;27;21174;-81
2021/03/28 09:15:27;;;;;;;3.60;1.83;;;11.60;53.20;;;;;;5129752;27;20659;-82
2021/03/28 09:18:16;;;;;;;2.70;1.93;;;11.70;52.90;;;;;;5129924;27;20672;-81
2021/03/28 09:20:54;;;;;;;1.57;1.40;;;11.80;52.00;;;;;;5130551;27;20623;-81
2021/03/28 09:23:40;;;;;;;1.30;1.20;;;11.90;51.30;;;;;;5129915;27;20629;-81
2021/03/28 09:26:19;;;;;;;3.90;2.07;;;12.10;49.40;;;;;;5128859;27;20761;-81
2021/03/28 09:29:09;;;;;;;3.63;1.93;;;11.90;49.00;;;;;;5128552;27;20623;-84
2021/03/28 09:31:50;;;;;;;6.10;1.70;;;12.10;50.80;;;;;;5129219;27;20714;-82
2021/03/28 09:34:38;;;;;;;3.30;1.67;;;12.30;50.30;;;;;;5127632;27;21187;-83
2021/03/28 09:37:19;;;;;;;3.30;1.60;;;12.50;51.20;;;;;;5130367;27;20610;-83
2021/03/28 09:40:10;;;;;;;4.30;1.73;;;12.50;48.00;;;;;;5130138;27;20723;-83
2021/03/28 09:43:05;;;;;;;2.90;1.90;;;12.10;47.30;;;;;;5126736;27;20642;-83
2021/03/28 09:46:00;;;;;;;4.00;2.00;;;12.40;48.90;;;;;;5129426;27;20663;-83
2021/03/28 09:49:11;;;;;;;2.10;1.90;;;12.50;47.50;;;;;;5129129;27;20619;-84
2021/03/28 09:52:14;;;;;;;3.50;2.13;;;12.80;46.60;;;;;;5130530;27;20607;-84
2021/03/28 09:55:16;;;;;;;4.30;1.80;;;12.80;46.10;;;;;;5130767;27;20592;-84
2021/03/28 09:58:13;;;;;;;1.50;1.40;;;13.00;47.10;;;;;;5124996;27;20634;-85
2021/03/28 10:00:55;;;;;;;5.57;1.87;;;13.20;47.80;;;;;;5130026;27;20660;-84
2021/03/28 10:03:28;;;;;;;3.07;1.60;;;13.30;47.30;;;;;;5130573;27;20631;-85
2021/03/28 10:06:01;;;;;;;2.60;1.60;;;13.10;46.60;;;;;;5131868;27;20615;-84
2021/03/28 10:08:36;;;;;;;3.60;2.20;;;13.30;46.90;;;;;;5131352;27;20599;-83
2021/03/28 10:11:24;;;;;;;4.17;2.03;;;13.20;45.20;;;;;;5130955;27;20653;-84
2021/03/28 10:14:29;;;;;;;3.73;2.10;;;13.10;46.10;;;;;;5131397;27;20623;-84
2021/03/28 10:17:38;;;;;;;3.50;1.60;;;13.10;46.10;;;;;;5105626;27;20634;-85
2021/03/28 10:20:35;;;;;;;2.60;1.83;;;13.50;47.10;;;;;;5128438;27;20618;-83
2021/03/28 10:23:18;;;;;;;3.37;1.80;;;13.00;45.10;;;;;;5128861;28;20622;-85
2021/03/28 10:26:00;;;;;;;4.20;1.63;;;12.70;46.10;;;;;;5128835;28;20962;-83
2021/03/28 10:28:55;;;;;;;2.73;1.47;;;13.20;46.50;;;;;;5129032;28;20623;-82
2021/03/28 10:31:34;;;;;;;3.17;2.00;;;13.10;45.00;;;;;;5131653;28;20975;-83
2021/03/28 10:34:41;;;;;;;2.50;1.73;;;13.20;45.20;;;;;;5129855;28;20615;-83
2021/03/28 10:37:35;;;;;;;4.40;2.30;;;13.40;46.30;;;;;;5132035;27;20634;-83
2021/03/28 10:40:36;;;;;;;2.03;1.50;;;13.70;45.80;;;;;;5122992;28;20620;-83
2021/03/28 10:43:13;;;;;;;1.70;1.60;;;13.90;45.40;;;;;;5122913;27;20610;-83
2021/03/28 10:45:58;;;;;;;2.03;1.80;;;14.10;45.80;;;;;;5129571;27;20727;-83
2021/03/28 10:48:57;;;;;;;2.73;1.97;;;13.90;44.80;;;;;;5130868;27;20616;-83
2021/03/28 10:51:56;;;;;;;4.30;1.80;;;14.20;44.60;;;;;;5131558;27;20667;-82
2021/03/28 10:55:01;;;;;;;2.80;2.17;;;14.00;45.10;;;;;;5130956;27;20611;-83
2021/03/28 10:58:03;;;;;;;4.03;1.97;;;14.10;44.50;;;;;;5134724;27;20687;-83
2021/03/28 11:01:21;;;;;;;6.50;2.10;;;14.10;44.30;;;;;;5132603;27;20720;-83
2021/03/28 11:04:19;;;;;;;2.40;1.60;;;14.40;45.50;;;;;;5098660;27;20668;-82
2021/03/28 11:07:17;;;;;;;2.10;1.60;;;14.30;44.90;;;;;;5134476;27;20981;-83
2021/03/28 11:10:11;;;;;;;2.30;1.50;;;14.20;44.40;;;;;;5123405;27;20632;-83
2021/03/28 11:13:34;;;;;;;1.60;1.30;;;14.40;44.40;;;;;;5113277;28;20698;-83
2021/03/28 11:16:21;;;;;;;2.00;1.40;;;14.60;44.30;;;;;;5049908;28;21002;-83
2021/03/28 11:19:27;;;;;;;4.73;2.17;;;14.60;44.20;;;;;;5106393;28;20977;-83
2021/03/28 11:22:09;;;;;;;3.07;1.63;;;14.80;44.10;;;;;;5113987;28;20624;-83
2021/03/28 11:24:53;;;;;;;2.60;1.60;;;14.50;43.50;;;;;;5113315;28;20721;-83
2021/03/28 11:27:52;;;;;;;3.70;1.90;;;14.70;44.20;;;;;;5120362;27;20616;-83
2021/03/28 11:30:35;;;;;;;2.27;1.70;;;14.40;44.70;;;;;;5134233;27;20710;-83
2021/03/28 11:33:28;;;;;;;3.03;2.20;;;14.40;44.70;;;;;;5133491;27;20605;-83
2021/03/28 11:36:14;;;;;;;1.83;1.73;;;14.80;45.20;;;;;;5133719;27;20616;-83
2021/03/28 11:38:45;;;;;;;5.27;2.17;;;15.00;44.70;;;;;;5134301;27;20625;-83
2021/03/28 11:41:46;;;;;;;4.47;2.17;;;14.70;44.70;;;;;;5134254;27;20636;-83
2021/03/28 11:44:29;;;;;;;2.70;1.70;;;14.60;44.90;;;;;;5133141;27;20638;-83
2021/03/28 11:47:03;;;;;;;2.77;2.20;;;14.70;44.80;;;;;;5133814;27;20614;-83
2021/03/28 11:49:47;;;;;;;4.33;1.90;;;14.70;44.90;;;;;;5133927;27;20606;-83
2021/03/28 11:52:22;;;;;;;3.70;2.00;;;14.90;45.40;;;;;;5133726;27;20644;-83
2021/03/28 11:55:11;;;;;;;3.03;2.20;;;14.90;45.70;;;;;;5132339;27;20602;-83
2021/03/28 11:57:40;;;;;;;1.97;1.77;;;15.00;45.80;;;;;;5133597;27;21231;-83
2021/03/28 12:00:40;;;;;;;7.40;2.90;;;14.70;44.20;;;;;;5133598;27;20620;-83
2021/03/28 12:03:34;;;;;;;4.30;1.80;;;14.30;43.30;;;;;;5112310;28;20609;-83
2021/03/28 12:06:08;;;;;;;2.60;2.00;;;14.20;43.90;;;;;;5113040;28;20613;-83
2021/03/28 12:08:54;;;;;;;4.30;2.03;;;14.30;44.00;;;;;;5113505;28;21038;-83
2021/03/28 12:11:33;;;;;;;5.27;2.10;;;14.60;44.70;;;;;;5133473;27;20677;-83
2021/03/28 12:14:14;;;;;;;2.10;1.60;;;15.00;45.40;;;;;;5132682;27;21490;-83
2021/03/28 12:17:18;;;;;;;1.90;1.70;;;15.10;44.40;;;;;;5133626;27;20645;-83
2021/03/28 12:19:52;;;;;;;2.17;1.97;;;15.10;43.50;;;;;;5133651;27;20632;-84
2021/03/28 12:22:21;;;;;;;2.27;1.40;;;14.80;44.00;;;;;;5133045;27;20615;-85
2021/03/28 12:25:00;;;;;;;2.80;2.50;;;14.90;44.00;;;;;;5132993;27;20743;-85
2021/03/28 12:27:35;;;;;;;3.70;1.50;;;15.00;44.10;;;;;;5132813;27;20615;-85
2021/03/28 12:30:02;;;;;;;2.37;2.17;;;15.20;43.90;;;;;;5132625;27;21151;-84
2021/03/28 12:33:02;;;;;;;4.40;1.97;;;15.00;43.30;;;;;;5132427;27;20612;-84
2021/03/28 12:35:36;;;;;;;2.10;1.70;;;15.20;44.50;;;;;;5132800;27;20621;-85
2021/03/28 12:38:46;;;;;;;1.93;1.67;;;15.10;43.20;;;;;;5132800;27;20621;-85
2021/03/28 12:41:35;;;;;;;8.20;3.70;;;15.30;44.30;;;;;;5133020;27;20599;-84
2021/03/28 12:44:30;;;;;;;4.70;3.17;;;15.20;43.70;;;;;;5128719;27;20710;-85
2021/03/28 12:47:00;;;;;;;3.83;3.30;;;15.30;44.30;;;;;;5132539;27;20606;-84
2021/03/28 12:49:42;;;;;;;4.33;2.97;;;15.40;43.70;;;;;;5132697;27;21025;-84
2021/03/28 12:52:35;;;;;;;1.70;1.60;;;15.70;43.40;;;;;;5132592;27;21185;-85
2021/03/28 12:55:24;;;;;;;5.10;2.00;;;15.40;42.10;;;;;;5128750;27;20762;-84
2021/03/28 12:57:52;;;;;;;4.87;2.90;;;15.50;42.70;;;;;;5118657;27;20653;-84
2021/03/28 13:00:36;;;;;;;2.83;2.30;;;15.60;43.20;;;;;;5132223;27;20621;-84
2021/03/28 13:03:14;;;;;;;4.23;1.83;;;15.70;43.30;;;;;;5111707;28;20616;-85
2021/03/28 13:06:06;;;;;;;1.97;1.50;;;15.70;42.80;;;;;;5111217;28;21066;-85
2021/03/28 13:08:40;;;;;;;2.10;1.70;;;16.20;43.10;;;;;;5112016;27;20608;-84
2021/03/28 13:11:07;;;;;;;6.23;2.10;;;16.20;43.20;;;;;;5132169;27;20612;-84
2021/03/28 13:13:41;;;;;;;2.93;2.10;;;15.80;41.20;;;;;;5131910;27;20611;-84
2021/03/28 13:16:23;;;;;;;4.10;1.70;;;15.70;42.20;;;;;;5131921;27;20606;-84
2021/03/28 13:18:50;;;;;;;4.30;2.40;;;15.90;42.30;;;;;;5132144;27;20618;-85
2021/03/28 13:21:20;;;;;;;6.27;2.00;;;16.30;42.60;;;;;;5132050;27;20621;-84
2021/03/28 13:24:03;;;;;;;4.03;1.90;;;16.50;43.10;;;;;;5131110;27;21159;-84
2021/03/28 13:26:31;;;;;;;1.67;1.57;;;16.80;42.30;;;;;;5131938;27;21171;-84
2021/03/28 13:29:02;;;;;;;3.07;2.20;;;16.90;40.90;;;;;;5128232;27;20610;-84
2021/03/28 13:31:40;;;;;;;3.00;2.03;;;17.00;42.30;;;;;;5131907;27;20626;-84
2021/03/28 13:34:35;;;;;;;2.30;2.10;;;17.00;41.50;;;;;;5131454;27;21023;-84
2021/03/28 13:37:15;;;;;;;2.37;1.63;;;17.00;40.60;;;;;;5093384;27;20635;-84
2021/03/28 13:39:58;;;;;;;3.30;2.50;;;16.90;40.90;;;;;;5131819;27;20691;-85
2021/03/28 13:42:31;;;;;;;3.23;1.77;;;17.20;41.20;;;;;;5131320;27;20614;-83
2021/03/28 13:45:06;;;;;;;2.90;2.20;;;17.20;40.00;;;;;;5131323;27;20711;-85
2021/03/28 13:47:51;;;;;;;10.97;7.47;;;17.80;40.20;;;;;;5130975;27;20615;-84
2021/03/28 13:50:46;;;;;;;2.83;1.77;;;19.10;39.30;;;;;;5131671;27;21151;-86
2021/03/28 13:53:34;;;;;;;3.07;2.37;;;22.10;36.20;;;;;;5130732;27;20620;-85
2021/03/28 13:56:23;;;;;;;2.40;2.13;;;23.80;35.20;;;;;;5131003;27;20734;-86
2021/03/28 13:59:03;;;;;;;2.37;2.23;;;25.20;31.60;;;;;;5131414;27;20654;-84
2021/03/28 14:01:33;;;;;;;4.43;2.60;;;26.70;31.30;;;;;;5121602;27;21155;-84
2021/03/28 14:04:20;;;;;;;2.67;1.77;;;30.00;31.50;;;;;;5110020;28;20612;-84
2021/03/28 14:06:48;;;;;;;1.70;1.40;;;31.90;27.00;;;;;;5110798;28;20967;-84
2021/03/28 14:09:29;;;;;;;2.10;1.90;;;32.70;25.90;;;;;;5110533;28;20616;-84
2021/03/28 14:11:58;;;;;;;1.63;1.43;;;31.70;26.00;;;;;;5110517;28;20620;-84
2021/03/28 14:14:30;;;;;;;3.97;3.60;;;33.10;26.00;;;;;;5109877;28;20654;-84
2021/03/28 14:17:02;;;;;;;5.67;2.30;;;34.20;25.60;;;;;;5110558;28;21011;-84
2021/03/28 14:19:35;;;;;;;2.10;1.67;;;35.90;24.40;;;;;;5109897;28;20635;-84
2021/03/28 14:22:14;;;;;;;2.20;1.67;;;33.70;24.40;;;;;;5110557;28;20634;-84
2021/03/28 14:24:41;;;;;;;1.90;1.63;;;34.20;25.10;;;;;;5109747;28;20620;-85
2021/03/28 14:27:17;;;;;;;2.97;1.53;;;33.80;23.10;;;;;;5114855;28;20623;-84
2021/03/28 14:29:45;;;;;;;2.73;1.93;;;32.10;24.40;;;;;;5131127;28;20619;-84
2021/03/28 14:32:24;;;;;;;2.57;1.87;;;28.10;26.70;;;;;;5131298;27;20944;-84
2021/03/28 14:35:14;;;;;;;3.03;1.73;;;27.40;27.90;;;;;;5130495;27;20698;-84
2021/03/28 14:38:25;;;;;;;3.60;2.27;;;28.50;26.80;;;;;;5110029;28;20616;-84
2021/03/28 14:41:04;;;;;;;4.17;2.03;;;29.00;26.70;;;;;;5110505;28;20647;-83
2021/03/28 14:44:06;;;;;;;1.60;1.50;;;28.40;25.00;;;;;;5129226;28;20623;-83
2021/03/28 14:46:46;;;;;;;2.30;1.70;;;27.50;26.30;;;;;;5123930;28;21196;-86